Time;durP1;ratioP1;P1;durP2;ratioP2;P2;SDS_P1;SDS_P2;PMS_P1;PMS_P2;Temp;Humidity;BMP_temperature;BMP_pressure;BME280_temperature;BME280_humidity;BME280_pressure;Samples;Min_cycle;Max_cycle;Signal;HPM_P1;HPM_P2
2021/06/20 00:01:33;;;;;;;52.92;48.22;;;12.60;99.90;;;;;;5032774;28;20018;-68
2021/06/20 00:04:01;;;;;;;53.17;48.70;;;12.60;99.90;;;;;;5032798;28;20034;-68
2021/06/20 00:06:35;;;;;;;60.35;55.50;;;12.60;99.90;;;;;;5032814;28;20111;-68
2021/06/20 00:09:11;;;;;;;55.85;51.33;;;12.50;99.90;;;;;;5033006;28;20029;-67
2021/06/20 00:11:45;;;;;;;56.60;52.10;;;12.50;99.90;;;;;;5032818;28;20087;-68
2021/06/20 00:14:13;;;;;;;50.97;46.30;;;12.50;99.90;;;;;;5032702;28;20029;-68
2021/06/20 00:16:40;;;;;;;58.08;53.50;;;12.40;99.90;;;;;;5031515;28;20395;-68
2021/06/20 00:19:09;;;;;;;57.63;53.38;;;12.40;99.90;;;;;;5032613;28;20544;-69
2021/06/20 00:21:37;;;;;;;57.70;53.10;;;12.40;99.90;;;;;;5032741;28;20522;-68
2021/06/20 00:24:06;;;;;;;52.78;48.67;;;12.40;99.90;;;;;;5032678;28;20022;-69
2021/06/20 00:26:33;;;;;;;55.20;50.97;;;12.40;99.90;;;;;;5032571;28;20458;-69
2021/06/20 00:29:00;;;;;;;53.50;48.47;;;12.40;99.90;;;;;;5032609;28;20510;-65
2021/06/20 00:31:28;;;;;;;53.88;49.30;;;12.40;99.90;;;;;;5033830;28;20064;-66
2021/06/20 00:33:55;;;;;;;52.55;48.15;;;12.40;99.90;;;;;;5035253;28;20128;-65
2021/06/20 00:36:23;;;;;;;54.08;49.63;;;12.40;99.90;;;;;;5036598;28;20026;-65
2021/06/20 00:38:50;;;;;;;55.55;50.83;;;12.50;99.90;;;;;;5036455;28;20018;-65
2021/06/20 00:41:17;;;;;;;52.42;48.00;;;12.50;99.90;;;;;;5036502;28;20386;-65
2021/06/20 00:43:45;;;;;;;56.90;52.15;;;12.50;99.90;;;;;;5036479;28;20029;-66
2021/06/20 00:46:12;;;;;;;57.13;52.63;;;12.50;99.90;;;;;;5036305;28;20067;-64
2021/06/20 00:48:40;;;;;;;60.70;55.70;;;12.60;99.90;;;;;;5036345;28;20022;-65
2021/06/20 00:51:07;;;;;;;58.80;53.72;;;12.70;99.90;;;;;;5036386;28;20051;-64
2021/06/20 00:53:36;;;;;;;58.38;53.22;;;12.70;99.90;;;;;;5036297;28;20033;-64
2021/06/20 00:56:04;;;;;;;57.42;52.25;;;12.70;99.90;;;;;;5036351;28;20038;-65
2021/06/20 00:58:32;;;;;;;55.03;50.25;;;12.90;99.90;;;;;;5036067;28;20382;-64
2021/06/20 01:00:59;;;;;;;56.58;51.67;;;12.80;99.90;;;;;;5036184;28;20073;-64
2021/06/20 01:03:26;;;;;;;57.80;52.92;;;12.90;99.90;;;;;;5036075;28;20037;-64
2021/06/20 01:05:54;;;;;;;62.53;56.88;;;12.90;99.90;;;;;;5035806;28;20475;-65
2021/06/20 01:08:21;;;;;;;53.38;48.92;;;12.90;99.90;;;;;;5036006;28;20097;-64
2021/06/20 01:10:49;;;;;;;49.55;44.85;;;12.90;99.90;;;;;;5034566;28;20029;-64
2021/06/20 01:13:18;;;;;;;55.35;50.33;;;12.90;99.90;;;;;;5035947;28;20030;-64
2021/06/20 01:15:49;;;;;;;52.67;48.05;;;12.80;99.90;;;;;;5036041;28;20047;-64
2021/06/20 01:18:20;;;;;;;49.40;44.50;;;12.80;99.90;;;;;;5035826;28;20017;-64
2021/06/20 01:20:48;;;;;;;56.30;51.00;;;12.80;99.90;;;;;;5035898;28;20053;-64
2021/06/20 01:23:15;;;;;;;63.55;58.30;;;12.80;99.90;;;;;;5035866;28;20414;-64
2021/06/20 01:25:44;;;;;;;57.25;52.53;;;12.80;99.90;;;;;;5035735;28;20022;-64
2021/06/20 01:28:13;;;;;;;57.13;52.17;;;12.80;99.90;;;;;;5035668;28;20101;-65
2021/06/20 01:30:47;;;;;;;64.85;59.15;;;12.80;99.90;;;;;;5035546;28;20076;-65
2021/06/20 01:33:15;;;;;;;63.88;58.17;;;12.80;99.90;;;;;;5035676;28;20474;-65
2021/06/20 01:35:44;;;;;;;62.75;57.75;;;12.80;99.90;;;;;;5035489;28;20025;-64
2021/06/20 01:38:11;;;;;;;62.58;57.35;;;12.80;99.90;;;;;;5034406;28;20044;-65
2021/06/20 01:40:39;;;;;;;63.65;58.65;;;12.80;99.90;;;;;;5035635;28;20021;-65
2021/06/20 01:43:07;;;;;;;52.25;47.47;;;12.80;99.90;;;;;;5034934;28;20021;-65
2021/06/20 01:45:37;;;;;;;59.05;53.55;;;12.80;99.90;;;;;;5035480;28;20109;-65
2021/06/20 01:48:06;;;;;;;58.50;53.42;;;12.90;99.90;;;;;;5035208;28;20041;-65
2021/06/20 01:50:34;;;;;;;58.92;53.83;;;13.00;99.90;;;;;;5035346;28;20036;-65
2021/06/20 01:53:04;;;;;;;61.70;56.35;;;12.90;99.90;;;;;;5035224;28;20025;-64
2021/06/20 01:55:32;;;;;;;65.80;60.20;;;13.00;99.90;;;;;;5035060;28;20053;-65
2021/06/20 01:58:00;;;;;;;63.67;58.35;;;13.00;99.90;;;;;;5033797;28;20179;-64
2021/06/20 02:00:27;;;;;;;60.00;54.70;;;13.10;99.90;;;;;;5035299;28;20022;-65
2021/06/20 02:02:55;;;;;;;63.00;57.45;;;13.20;99.90;;;;;;5035492;28;20105;-64
2021/06/20 02:05:27;;;;;;;59.80;54.65;;;13.30;99.90;;;;;;5033629;28;20030;-65
2021/06/20 02:07:54;;;;;;;58.80;53.75;;;13.30;99.90;;;;;;5035000;28;20474;-65
2021/06/20 02:10:22;;;;;;;60.75;56.17;;;13.20;99.90;;;;;;5034972;28;20021;-65
2021/06/20 02:12:51;;;;;;;58.33;53.75;;;13.40;99.90;;;;;;5034945;28;20021;-65
2021/06/20 02:15:19;;;;;;;60.47;56.03;;;13.40;99.90;;;;;;5034632;28;20036;-65
2021/06/20 02:17:47;;;;;;;51.33;46.45;;;13.40;99.90;;;;;;5034831;28;20104;-65
2021/06/20 02:20:18;;;;;;;56.08;51.17;;;13.50;99.90;;;;;;5034641;28;20033;-65
2021/06/20 02:22:47;;;;;;;56.40;51.78;;;13.80;99.90;;;;;;5034794;28;20105;-65
2021/06/20 02:25:16;;;;;;;55.63;50.70;;;13.70;99.90;;;;;;5034649;28;20037;-65
2021/06/20 02:27:45;;;;;;;59.63;54.35;;;13.80;99.90;;;;;;5033369;28;20048;-65
2021/06/20 02:30:14;;;;;;;58.65;53.88;;;13.70;99.90;;;;;;5034587;28;20028;-64
2021/06/20 02:32:41;;;;;;;61.80;56.80;;;13.80;99.90;;;;;;5034562;28;20029;-64
2021/06/20 02:35:11;;;;;;;59.58;54.55;;;13.80;99.90;;;;;;5034492;28;20030;-64
2021/06/20 02:37:39;;;;;;;57.65;52.92;;;14.00;99.90;;;;;;5034310;28;20112;-65
2021/06/20 02:40:08;;;;;;;55.35;50.60;;;14.00;99.90;;;;;;5034278;28;20097;-65
2021/06/20 02:42:37;;;;;;;59.45;54.85;;;14.00;99.90;;;;;;5034252;28;20049;-64
2021/06/20 02:45:06;;;;;;;54.75;49.80;;;14.00;99.90;;;;;;5034156;28;20067;-64
2021/06/20 02:47:33;;;;;;;50.65;46.20;;;13.90;99.90;;;;;;5034523;28;20026;-64
2021/06/20 02:50:01;;;;;;;52.88;48.00;;;14.00;99.90;;;;;;5034308;28;20156;-64
2021/06/20 02:52:28;;;;;;;53.90;49.22;;;14.10;99.90;;;;;;5034083;28;20026;-64
2021/06/20 02:54:59;;;;;;;51.75;47.10;;;14.10;99.90;;;;;;5032743;28;20064;-64
2021/06/20 02:57:29;;;;;;;53.45;48.75;;;14.10;99.90;;;;;;5032747;28;20029;-64
2021/06/20 03:00:01;;;;;;;55.35;50.83;;;14.00;99.90;;;;;;5033868;28;20029;-64
2021/06/20 03:02:30;;;;;;;58.30;53.75;;;14.00;99.90;;;;;;5034176;28;20022;-64
2021/06/20 03:04:58;;;;;;;51.00;46.90;;;14.10;99.90;;;;;;5033946;28;20022;-64
2021/06/20 03:07:26;;;;;;;51.92;48.08;;;14.20;99.90;;;;;;5033929;28;20025;-64
2021/06/20 03:09:53;;;;;;;54.90;51.00;;;14.20;99.90;;;;;;5033798;28;20104;-64
2021/06/20 03:12:20;;;;;;;54.97;51.08;;;14.30;99.90;;;;;;5033828;28;20021;-65
2021/06/20 03:14:48;;;;;;;58.72;54.75;;;14.40;99.90;;;;;;5033708;28;20026;-64
2021/06/20 03:17:16;;;;;;;56.17;52.22;;;14.50;99.90;;;;;;5033601;28;20604;-64
2021/06/20 03:19:45;;;;;;;58.25;54.20;;;14.70;99.90;;;;;;5033583;28;20021;-64
2021/06/20 03:22:13;;;;;;;59.05;55.17;;;15.00;99.90;;;;;;5033467;28;20520;-64
2021/06/20 03:24:43;;;;;;;51.17;47.45;;;15.30;99.90;;;;;;5033288;28;20485;-64
2021/06/20 03:27:10;;;;;;;53.20;49.57;;;15.50;99.90;;;;;;5033538;28;20478;-64
2021/06/20 03:29:38;;;;;;;60.13;56.17;;;15.40;99.90;;;;;;5033572;28;20029;-64
2021/06/20 03:32:07;;;;;;;67.20;62.38;;;15.40;99.90;;;;;;5032055;28;20397;-64
2021/06/20 03:34:34;;;;;;;59.90;56.17;;;15.20;99.90;;;;;;5033345;28;20513;-64
2021/06/20 03:37:02;;;;;;;57.75;53.35;;;;;;;;;;5033427;28;20020;-63
2021/06/20 03:39:30;;;;;;;48.85;45.60;;;15.30;99.90;;;;;;5033314;28;20017;-63
2021/06/20 03:41:57;;;;;;;50.63;46.72;;;15.20;99.90;;;;;;5033241;28;20038;-63
2021/06/20 03:44:25;;;;;;;49.25;45.38;;;15.00;99.90;;;;;;5033646;28;20101;-63
2021/06/20 03:46:52;;;;;;;48.50;45.00;;;14.80;99.90;;;;;;5033116;28;20501;-63
2021/06/20 03:49:19;;;;;;;56.00;51.55;;;14.80;99.90;;;;;;5033220;28;20028;-63
2021/06/20 03:51:47;;;;;;;54.40;50.05;;;14.60;99.90;;;;;;5033336;28;20113;-63
2021/06/20 03:54:14;;;;;;;52.75;48.53;;;14.50;99.90;;;;;;5032856;28;20103;-63
2021/06/20 03:56:41;;;;;;;54.97;50.75;;;14.50;99.90;;;;;;5033035;28;20041;-63
2021/06/20 03:59:09;;;;;;;54.58;50.72;;;14.40;99.90;;;;;;5031723;28;20029;-63
2021/06/20 04:01:37;;;;;;;52.40;48.42;;;14.30;99.90;;;;;;5033181;28;20484;-64
2021/06/20 04:04:05;;;;;;;50.13;46.33;;;14.30;99.90;;;;;;5033059;28;20025;-64
2021/06/20 04:06:33;;;;;;;52.50;48.70;;;14.20;99.90;;;;;;5032777;28;20113;-63
2021/06/20 04:09:01;;;;;;;55.58;51.60;;;14.20;99.90;;;;;;5032943;28;20433;-64
2021/06/20 04:11:28;;;;;;;54.15;49.70;;;14.10;99.90;;;;;;5032894;28;20032;-62
2021/06/20 04:13:56;;;;;;;57.20;52.80;;;14.00;99.90;;;;;;5032623;28;20104;-63
2021/06/20 04:16:23;;;;;;;55.13;51.03;;;14.10;99.90;;;;;;5032845;28;20017;-63
2021/06/20 04:18:51;;;;;;;55.33;50.83;;;14.00;99.90;;;;;;5032749;28;20470;-62
2021/06/20 04:21:18;;;;;;;58.75;54.38;;;;;;;;;;5032900;28;20068;-62
2021/06/20 04:23:48;;;;;;;55.53;51.22;;;13.80;99.90;;;;;;5032662;28;20029;-62
2021/06/20 04:26:15;;;;;;;57.25;52.90;;;13.70;99.90;;;;;;5032582;28;20048;-62
2021/06/20 04:28:43;;;;;;;63.95;59.13;;;13.80;99.90;;;;;;5032586;28;20041;-61
2021/06/20 04:31:11;;;;;;;55.60;51.45;;;13.80;99.90;;;;;;5032583;28;20045;-61
2021/06/20 04:33:38;;;;;;;55.42;50.75;;;14.00;99.90;;;;;;5032683;28;20048;-61
2021/06/20 04:36:06;;;;;;;62.33;57.60;;;14.00;99.90;;;;;;5032615;28;20022;-61
2021/06/20 04:38:33;;;;;;;56.75;51.92;;;14.00;99.90;;;;;;5032603;28;20022;-61
2021/06/20 04:41:06;;;;;;;56.55;52.15;;;13.90;99.90;;;;;;5032510;28;20382;-61
2021/06/20 04:43:40;;;;;;;58.60;54.40;;;13.90;99.90;;;;;;5032464;28;20152;-62
2021/06/20 04:46:29;;;;;;;59.13;55.13;;;13.90;99.90;;;;;;5032559;28;20028;-62
2021/06/20 04:49:07;;;;;;;54.28;50.42;;;14.00;99.90;;;;;;5032396;28;20516;-61
2021/06/20 04:51:40;;;;;;;52.28;48.30;;;14.20;99.90;;;;;;5032660;28;20481;-61
2021/06/20 04:54:14;;;;;;;52.38;48.58;;;14.20;99.90;;;;;;5032247;28;20187;-62
2021/06/20 04:56:43;;;;;;;57.90;53.85;;;14.10;99.90;;;;;;5032516;28;20025;-61
2021/06/20 04:59:10;;;;;;;54.00;49.67;;;14.00;99.90;;;;;;5032285;28;20025;-61
2021/06/20 05:01:39;;;;;;;57.17;53.10;;;14.00;99.90;;;;;;5032404;28;20501;-61
2021/06/20 05:04:08;;;;;;;55.83;51.95;;;13.90;99.90;;;;;;5032329;28;20036;-61
2021/06/20 05:06:35;;;;;;;59.53;55.28;;;13.80;99.90;;;;;;5032403;28;20506;-60
2021/06/20 05:09:03;;;;;;;56.58;52.38;;;13.90;99.90;;;;;;5032331;28;20025;-60
2021/06/20 05:11:31;;;;;;;58.85;54.75;;;13.90;99.90;;;;;;5030914;28;20029;-61
2021/06/20 05:13:58;;;;;;;65.05;60.47;;;13.80;99.90;;;;;;5032421;28;20053;-61
2021/06/20 05:16:25;;;;;;;57.53;53.25;;;13.50;99.90;;;;;;5032381;28;20044;-60
2021/06/20 05:18:53;;;;;;;57.88;53.42;;;13.50;99.90;;;;;;5035378;28;20394;-61
2021/06/20 05:21:20;;;;;;;59.90;55.70;;;13.50;99.90;;;;;;5035913;28;20072;-61
2021/06/20 05:23:48;;;;;;;61.90;57.38;;;13.40;99.90;;;;;;5036138;28;20105;-62
2021/06/20 05:26:15;;;;;;;61.25;56.85;;;13.30;99.90;;;;;;5035733;28;20028;-62
2021/06/20 05:28:43;;;;;;;60.60;56.00;;;13.20;99.90;;;;;;5034369;28;20035;-62
2021/06/20 05:31:10;;;;;;;60.15;55.80;;;13.30;99.90;;;;;;5035730;28;20059;-62
2021/06/20 05:33:37;;;;;;;62.47;57.70;;;13.20;99.90;;;;;;5035535;28;20018;-61
2021/06/20 05:36:05;;;;;;;57.10;52.58;;;13.20;99.90;;;;;;5035584;28;20018;-62
2021/06/20 05:38:32;;;;;;;59.95;55.08;;;13.20;99.90;;;;;;5035558;28;20068;-61
2021/06/20 05:41:00;;;;;;;61.95;57.15;;;13.10;99.90;;;;;;5035578;28;20360;-61
2021/06/20 05:43:27;;;;;;;59.60;54.60;;;13.10;99.90;;;;;;5035413;28;20390;-62
2021/06/20 05:45:55;;;;;;;59.08;54.55;;;13.00;99.90;;;;;;5035310;28;20028;-62
2021/06/20 05:48:22;;;;;;;57.63;53.03;;;12.90;99.90;;;;;;5035310;28;20104;-62
2021/06/20 05:50:50;;;;;;;58.60;53.75;;;12.80;99.90;;;;;;5033697;28;20017;-61
2021/06/20 05:53:17;;;;;;;70.60;65.43;;;12.80;99.90;;;;;;5035171;28;20029;-61
2021/06/20 05:55:45;;;;;;;69.90;64.72;;;12.80;99.90;;;;;;5034723;28;20057;-62
2021/06/20 05:58:12;;;;;;;63.85;58.97;;;12.80;99.90;;;;;;5034956;28;20104;-61
2021/06/20 06:00:40;;;;;;;61.60;56.60;;;12.60;99.90;;;;;;5035088;28;20017;-60
2021/06/20 06:03:08;;;;;;;61.13;56.65;;;12.60;99.90;;;;;;5035042;28;20022;-64
2021/06/20 06:05:35;;;;;;;59.20;54.50;;;12.60;99.90;;;;;;5035073;28;20029;-62
2021/06/20 06:08:03;;;;;;;63.15;57.95;;;12.60;99.90;;;;;;5034942;28;20022;-62
2021/06/20 06:10:31;;;;;;;65.03;59.70;;;12.60;99.90;;;;;;5033524;28;20025;-62
2021/06/20 06:12:59;;;;;;;65.72;60.63;;;12.60;99.90;;;;;;5034764;28;20025;-61
2021/06/20 06:15:27;;;;;;;58.55;53.75;;;12.50;99.90;;;;;;5034647;28;20502;-63
2021/06/20 06:17:55;;;;;;;58.20;53.25;;;12.50;99.90;;;;;;5034788;28;20484;-62
2021/06/20 06:20:23;;;;;;;77.28;71.65;;;12.50;99.90;;;;;;5034679;28;20024;-63
2021/06/20 06:22:51;;;;;;;59.17;54.35;;;12.40;99.90;;;;;;5033640;28;20040;-59
2021/06/20 06:25:19;;;;;;;57.17;52.28;;;12.40;99.90;;;;;;5034523;28;20125;-58
2021/06/20 06:27:46;;;;;;;67.97;62.88;;;12.40;99.90;;;;;;5034482;28;20021;-59
2021/06/20 06:30:15;;;;;;;66.40;61.15;;;12.50;99.90;;;;;;5034297;28;20030;-61
2021/06/20 06:32:44;;;;;;;71.18;65.80;;;12.50;99.90;;;;;;5034416;28;20486;-60
2021/06/20 06:35:12;;;;;;;55.15;50.78;;;12.40;99.90;;;;;;5034764;28;20033;-59
2021/06/20 06:37:40;;;;;;;54.28;49.45;;;12.50;99.90;;;;;;5034298;28;20022;-60
2021/06/20 06:40:09;;;;;;;59.33;54.33;;;12.50;99.90;;;;;;5034373;28;20419;-58
2021/06/20 06:42:37;;;;;;;54.63;49.38;;;12.50;99.90;;;;;;5034208;28;20489;-62
2021/06/20 06:45:06;;;;;;;56.55;51.45;;;12.50;99.90;;;;;;5034201;28;20021;-62
2021/06/20 06:47:37;;;;;;;52.30;48.03;;;12.40;99.90;;;;;;5034438;28;20062;-62
2021/06/20 06:50:08;;;;;;;52.65;47.90;;;12.40;99.90;;;;;;5032897;28;20034;-63
2021/06/20 06:52:36;;;;;;;52.38;47.95;;;12.40;99.90;;;;;;5034249;28;20040;-62
2021/06/20 06:55:05;;;;;;;51.92;47.30;;;12.40;99.90;;;;;;5033793;28;20049;-62
2021/06/20 06:57:34;;;;;;;52.55;48.25;;;12.30;99.90;;;;;;5033844;28;20021;-63
2021/06/20 07:00:01;;;;;;;54.75;49.65;;;12.30;99.90;;;;;;5033851;28;20014;-63
2021/06/20 07:02:29;;;;;;;56.33;52.00;;;12.30;99.90;;;;;;5033870;28;20029;-62
2021/06/20 07:04:57;;;;;;;57.67;52.75;;;12.30;99.90;;;;;;5033822;28;20509;-62
2021/06/20 07:07:25;;;;;;;58.28;53.50;;;12.30;99.90;;;;;;5033902;28;20032;-61
2021/06/20 07:09:58;;;;;;;58.72;53.97;;;12.30;99.90;;;;;;5033729;28;20021;-62
2021/06/20 07:12:29;;;;;;;55.55;50.70;;;12.30;99.90;;;;;;5033654;28;20136;-61
2021/06/20 07:14:57;;;;;;;60.25;55.42;;;12.30;99.90;;;;;;5033777;28;20547;-61
2021/06/20 07:17:24;;;;;;;61.95;57.00;;;12.20;99.90;;;;;;5033875;28;20504;-62
2021/06/20 07:19:51;;;;;;;60.05;54.80;;;12.20;99.90;;;;;;5033564;28;20493;-62
2021/06/20 07:22:19;;;;;;;59.80;54.72;;;12.20;99.90;;;;;;5033520;28;20053;-61
2021/06/20 07:24:46;;;;;;;57.50;52.85;;;12.20;99.90;;;;;;5033556;28;20032;-62
2021/06/20 07:27:13;;;;;;;55.60;50.72;;;12.10;99.90;;;;;;5033607;28;20026;-62
2021/06/20 07:29:47;;;;;;;57.65;52.30;;;12.20;99.90;;;;;;5033403;28;20032;-62
2021/06/20 07:32:15;;;;;;;57.17;52.00;;;12.10;99.90;;;;;;5033564;28;20057;-61
2021/06/20 07:34:42;;;;;;;62.50;57.60;;;12.10;99.90;;;;;;5033330;28;20021;-61
2021/06/20 07:37:10;;;;;;;66.18;60.53;;;12.10;99.90;;;;;;5033280;28;20099;-61
2021/06/20 07:39:37;;;;;;;67.90;62.63;;;12.00;99.90;;;;;;5033061;28;20040;-61
2021/06/20 07:42:06;;;;;;;65.22;60.67;;;12.00;99.90;;;;;;5032989;28;20049;-61
2021/06/20 07:44:33;;;;;;;60.75;55.72;;;12.00;99.90;;;;;;5033243;28;20078;-61
2021/06/20 07:47:00;;;;;;;59.67;54.85;;;12.00;99.90;;;;;;5033098;28;20079;-61
2021/06/20 07:49:28;;;;;;;62.33;56.80;;;12.00;99.90;;;;;;5033179;28;20029;-61
2021/06/20 07:51:55;;;;;;;62.08;56.97;;;12.00;99.90;;;;;;5033262;28;20022;-61
2021/06/20 07:54:22;;;;;;;64.63;59.58;;;12.00;99.90;;;;;;5032798;28;20046;-61
2021/06/20 07:56:50;;;;;;;61.83;57.03;;;12.00;99.90;;;;;;5033126;28;20025;-61
2021/06/20 07:59:21;;;;;;;61.35;56.20;;;12.00;99.90;;;;;;5033054;28;20065;-61
2021/06/20 08:01:48;;;;;;;58.97;53.95;;;13.00;99.90;;;;;;5033022;28;20021;-61
2021/06/20 08:04:16;;;;;;;57.78;52.60;;;11.90;99.90;;;;;;5033013;28;20075;-61
2021/06/20 08:06:43;;;;;;;65.00;59.80;;;11.90;99.90;;;;;;5032994;28;20021;-61
2021/06/20 08:09:10;;;;;;;63.28;58.03;;;11.90;99.90;;;;;;5032837;28;20022;-61
2021/06/20 08:11:38;;;;;;;58.45;53.30;;;11.80;99.90;;;;;;5032886;28;20475;-64
2021/06/20 08:14:05;;;;;;;61.13;55.60;;;11.90;99.90;;;;;;5032816;28;20032;-64
2021/06/20 08:16:33;;;;;;;66.05;60.63;;;11.90;99.90;;;;;;5032938;28;20097;-63
2021/06/20 08:19:00;;;;;;;57.90;53.10;;;11.90;99.90;;;;;;5032884;28;20492;-64
2021/06/20 08:21:28;;;;;;;59.97;54.55;;;11.90;99.90;;;;;;5032952;28;20028;-64
2021/06/20 08:23:55;;;;;;;60.25;55.00;;;11.90;99.90;;;;;;5032798;28;20060;-64
2021/06/20 08:26:23;;;;;;;58.85;53.97;;;11.90;99.90;;;;;;5032871;28;20021;-64
2021/06/20 08:28:50;;;;;;;59.05;53.53;;;11.80;99.90;;;;;;5032714;28;20113;-63
2021/06/20 08:31:20;;;;;;;58.67;53.22;;;11.90;99.90;;;;;;5032743;28;20025;-63
2021/06/20 08:33:47;;;;;;;56.95;51.83;;;11.90;99.90;;;;;;5032661;28;20033;-64
2021/06/20 08:36:15;;;;;;;57.30;52.33;;;11.90;99.90;;;;;;5032655;28;20481;-64
2021/06/20 08:38:42;;;;;;;56.00;51.17;;;11.90;99.90;;;;;;5031317;28;20017;-64
2021/06/20 08:41:13;;;;;;;52.17;47.53;;;;;;;;;;5032601;28;20021;-64
2021/06/20 08:43:40;;;;;;;;;;;11.90;99.90;;;;;;5031668;28;20022;-65
2021/06/20 08:46:09;;;;;;;51.65;47.08;;;11.90;99.90;;;;;;5032602;28;19905;-63
2021/06/20 08:48:36;;;;;;;55.95;50.72;;;11.90;99.90;;;;;;5032516;28;20451;-62
2021/06/20 08:51:05;;;;;;;66.50;61.50;;;11.90;99.90;;;;;;5032652;28;20049;-64
2021/06/20 08:53:33;;;;;;;57.67;52.47;;;12.00;99.90;;;;;;5035106;28;20075;-64
2021/06/20 08:56:00;;;;;;;54.40;49.00;;;12.00;99.90;;;;;;5036196;28;20498;-62
2021/06/20 08:58:31;;;;;;;54.28;48.85;;;12.00;99.90;;;;;;5036293;28;20032;-62
2021/06/20 09:01:01;;;;;;;55.47;50.00;;;12.00;99.90;;;;;;5035246;28;20128;-63
2021/06/20 09:03:45;;;;;;;57.20;51.20;;;12.00;99.90;;;;;;5036305;28;20056;-62
2021/06/20 09:06:20;;;;;;;57.47;51.85;;;12.00;99.90;;;;;;5034915;28;20071;-61
2021/06/20 09:08:53;;;;;;;58.75;52.58;;;12.00;99.90;;;;;;5036271;28;20025;-62
2021/06/20 09:11:34;;;;;;;55.75;49.83;;;12.10;99.90;;;;;;5036097;28;20028;-63
2021/06/20 09:14:13;;;;;;;53.47;48.58;;;12.00;99.90;;;;;;5036017;28;20025;-61
2021/06/20 09:16:55;;;;;;;57.95;52.40;;;12.10;99.90;;;;;;5036120;28;20029;-62
2021/06/20 09:19:34;;;;;;;56.08;50.67;;;12.10;99.90;;;;;;5035753;28;20033;-62
2021/06/20 09:22:04;;;;;;;60.63;54.92;;;;;;;;;;5035594;28;20096;-63
2021/06/20 09:24:32;;;;;;;57.78;52.47;;;12.10;99.90;;;;;;5035692;28;20021;-62
2021/06/20 09:27:01;;;;;;;60.10;54.47;;;12.10;99.90;;;;;;5035482;28;20088;-62
2021/06/20 09:29:31;;;;;;;56.88;51.75;;;12.10;99.90;;;;;;5034113;28;20031;-62
2021/06/20 09:32:01;;;;;;;59.05;53.72;;;12.10;99.90;;;;;;5035442;28;20025;-62
2021/06/20 09:34:28;;;;;;;59.47;54.35;;;12.10;99.90;;;;;;5035408;28;20430;-62
2021/06/20 09:37:04;;;;;;;57.60;52.47;;;12.00;99.90;;;;;;5035455;28;20025;-61
2021/06/20 09:39:32;;;;;;;58.60;53.80;;;12.00;99.90;;;;;;5035427;28;20033;-62
2021/06/20 09:42:04;;;;;;;58.33;53.08;;;12.00;99.90;;;;;;5035306;28;20021;-62
2021/06/20 09:44:54;;;;;;;57.22;52.13;;;12.00;99.90;;;;;;5035450;28;20083;-62
2021/06/20 09:47:24;;;;;;;57.20;52.30;;;12.00;99.90;;;;;;5035479;28;20033;-62
2021/06/20 09:49:54;;;;;;;59.30;54.13;;;11.90;99.90;;;;;;5034101;28;20025;-62
2021/06/20 09:52:36;;;;;;;59.28;54.28;;;11.90;99.90;;;;;;5035404;28;20052;-62
2021/06/20 09:55:10;;;;;;;59.33;54.50;;;11.80;99.90;;;;;;5035119;28;20108;-62
2021/06/20 09:57:47;;;;;;;58.67;53.63;;;11.80;99.90;;;;;;5035305;28;20088;-61
2021/06/20 10:00:15;;;;;;;59.22;54.20;;;11.70;99.90;;;;;;5035195;28;20024;-63
2021/06/20 10:02:43;;;;;;;61.60;56.10;;;11.70;99.90;;;;;;5033497;28;20057;-64
2021/06/20 10:05:12;;;;;;;60.63;55.40;;;11.60;99.90;;;;;;5035121;28;20112;-63
2021/06/20 10:07:40;;;;;;;61.70;56.17;;;11.60;99.90;;;;;;5035149;28;20025;-63
2021/06/20 10:10:10;;;;;;;61.28;56.47;;;11.60;99.90;;;;;;5035033;28;20056;-62
2021/06/20 10:12:37;;;;;;;60.30;55.43;;;11.60;99.90;;;;;;5034976;28;20025;-63
2021/06/20 10:15:13;;;;;;;61.72;56.45;;;11.50;99.90;;;;;;5034906;28;20068;-63
2021/06/20 10:17:46;;;;;;;59.78;54.45;;;11.50;99.90;;;;;;5034842;28;20496;-63
2021/06/20 10:20:15;;;;;;;60.50;54.47;;;11.40;99.90;;;;;;5034825;28;20387;-63
2021/06/20 10:22:45;;;;;;;61.20;56.33;;;11.40;99.90;;;;;;5034875;28;20360;-64
2021/06/20 10:25:26;;;;;;;66.20;60.87;;;11.30;99.90;;;;;;5034848;28;20021;-60
2021/06/20 10:28:10;;;;;;;63.28;58.03;;;11.30;99.90;;;;;;5034753;28;20342;-62
2021/06/20 10:30:37;;;;;;;66.45;60.80;;;11.30;99.90;;;;;;5034669;28;20025;-63
2021/06/20 10:33:06;;;;;;;66.10;60.55;;;;;;;;;;5034643;28;20109;-64
2021/06/20 10:35:34;;;;;;;69.40;64.05;;;11.10;99.90;;;;;;5034617;28;20025;-64
2021/06/20 10:38:02;;;;;;;68.60;63.38;;;11.10;99.90;;;;;;5034576;28;20032;-63
2021/06/20 10:40:44;;;;;;;64.72;59.28;;;11.10;99.90;;;;;;5033218;28;20108;-63
2021/06/20 10:43:20;;;;;;;61.10;56.10;;;11.10;99.90;;;;;;5034444;28;20112;-62
2021/06/20 10:45:48;;;;;;;62.85;57.20;;;11.00;99.90;;;;;;5034296;28;20071;-62
2021/06/20 10:48:22;;;;;;;62.85;57.55;;;11.00;99.90;;;;;;5034256;28;20039;-63
2021/06/20 10:50:53;;;;;;;62.10;56.72;;;11.00;99.90;;;;;;5032846;28;20022;-63
2021/06/20 10:53:21;;;;;;;60.55;55.65;;;11.00;99.90;;;;;;5034107;28;20033;-62
2021/06/20 10:55:53;;;;;;;62.72;57.63;;;11.00;99.90;;;;;;5034026;28;20037;-62
2021/06/20 10:58:25;;;;;;;62.80;57.78;;;11.00;99.90;;;;;;5034215;28;20021;-63
2021/06/20 11:01:16;;;;;;;61.63;56.50;;;10.90;99.90;;;;;;5032629;28;20555;-62
2021/06/20 11:03:51;;;;;;;70.85;65.22;;;10.90;99.90;;;;;;5033924;28;20024;-62
2021/06/20 11:06:23;;;;;;;72.10;66.93;;;10.80;99.90;;;;;;5033951;28;20018;-62
2021/06/20 11:08:54;;;;;;;63.83;58.60;;;10.90;99.90;;;;;;5033934;28;20437;-61
2021/06/20 11:11:23;;;;;;;67.15;61.63;;;10.90;99.90;;;;;;5033719;28;20025;-62
2021/06/20 11:13:57;;;;;;;67.53;62.33;;;10.90;99.90;;;;;;5033758;28;20113;-62
2021/06/20 11:16:27;;;;;;;66.97;61.28;;;11.00;99.90;;;;;;5032808;28;20108;-63
2021/06/20 11:19:12;;;;;;;64.57;59.45;;;11.00;99.90;;;;;;5033553;28;20018;-62
2021/06/20 11:21:41;;;;;;;60.92;55.78;;;;;;;;;;5033692;28;20443;-62
2021/06/20 11:24:11;;;;;;;61.25;56.25;;;11.10;99.90;;;;;;5033363;28;20025;-62
2021/06/20 11:26:39;;;;;;;68.25;62.83;;;11.10;99.90;;;;;;5033505;28;20136;-62
2021/06/20 11:29:12;;;;;;;66.20;61.10;;;11.10;99.90;;;;;;5033420;28;20025;-62
2021/06/20 11:31:48;;;;;;;63.47;58.15;;;11.00;99.90;;;;;;5033399;28;20032;-62
2021/06/20 11:34:16;;;;;;;62.35;57.28;;;11.00;99.90;;;;;;5033313;28;20025;-62
2021/06/20 11:36:43;;;;;;;65.05;59.45;;;11.00;99.90;;;;;;5033540;28;20080;-62
2021/06/20 11:39:16;;;;;;;65.35;60.13;;;11.00;99.90;;;;;;5033266;28;20032;-62
2021/06/20 11:41:50;;;;;;;64.45;59.10;;;10.90;99.90;;;;;;5033466;28;20021;-63
2021/06/20 11:44:20;;;;;;;65.65;60.53;;;10.80;99.90;;;;;;5031911;28;20116;-62
2021/06/20 11:46:48;;;;;;;68.03;62.25;;;10.80;99.90;;;;;;5033025;28;20036;-62
2021/06/20 11:49:23;;;;;;;67.97;62.55;;;10.80;99.90;;;;;;5031796;28;20029;-62
2021/06/20 11:51:58;;;;;;;67.20;61.97;;;10.70;99.90;;;;;;5033114;28;20551;-62
2021/06/20 11:54:28;;;;;;;70.57;64.72;;;10.80;99.90;;;;;;5032839;28;20053;-63
2021/06/20 11:57:04;;;;;;;68.45;63.50;;;10.90;99.90;;;;;;5033145;28;20334;-62
2021/06/20 11:59:42;;;;;;;69.55;64.45;;;10.70;99.90;;;;;;5033008;28;20021;-62
2021/06/20 12:02:13;;;;;;;68.88;63.67;;;10.80;99.90;;;;;;5032892;28;20022;-62
2021/06/20 12:04:46;;;;;;;68.07;62.83;;;10.90;99.90;;;;;;5032667;28;20022;-62
2021/06/20 12:07:14;;;;;;;65.65;60.95;;;10.80;99.90;;;;;;5033043;28;20029;-62
2021/06/20 12:09:42;;;;;;;66.80;61.58;;;10.90;99.90;;;;;;5032812;28;20505;-62
2021/06/20 12:12:13;;;;;;;66.93;61.88;;;10.90;99.90;;;;;;5032843;28;20022;-62
2021/06/20 12:14:42;;;;;;;67.25;61.75;;;11.00;99.90;;;;;;5032875;28;20026;-62
2021/06/20 12:17:14;;;;;;;69.20;64.40;;;11.00;99.90;;;;;;5031352;28;20389;-62
2021/06/20 12:19:42;;;;;;;63.40;58.15;;;11.10;99.90;;;;;;5032781;28;20096;-62
2021/06/20 12:22:13;;;;;;;65.30;60.67;;;11.10;99.90;;;;;;5032783;28;20498;-63
2021/06/20 12:24:43;;;;;;;66.85;62.10;;;11.10;99.90;;;;;;5032791;28;20049;-62
2021/06/20 12:27:11;;;;;;;61.15;56.70;;;11.00;99.90;;;;;;5036694;28;20073;-63
2021/06/20 12:29:39;;;;;;;65.47;60.88;;;10.90;99.90;;;;;;5039334;28;20040;-63
2021/06/20 12:32:17;;;;;;;69.15;63.97;;;10.80;99.90;;;;;;5039299;28;20087;-62
2021/06/20 12:34:50;;;;;;;60.65;55.85;;;10.80;99.90;;;;;;5039400;28;20143;-62
2021/06/20 12:37:19;;;;;;;57.85;53.03;;;10.80;99.90;;;;;;5037988;28;20390;-63
2021/06/20 12:39:53;;;;;;;58.42;53.83;;;10.70;99.90;;;;;;5039368;28;20032;-63
2021/06/20 12:42:21;;;;;;;56.92;52.45;;;;;;;;;;5039327;28;20029;-63